createdAt,value
2019-04-28T00:03:53.653Z,2.57
2019-04-28T00:09:01.620Z,1.80
2019-04-28T00:14:08.498Z,2.33
2019-04-28T00:19:14.656Z,1.87
2019-04-28T00:24:34.537Z,2.33
2019-04-28T00:29:45.567Z,2.00
2019-04-28T00:34:48.143Z,1.73
2019-04-28T00:39:54.113Z,1.80
2019-04-28T00:45:01.677Z,2.67
2019-04-28T00:50:07.745Z,2.17
2019-04-28T00:55:13.893Z,1.97
2019-04-28T01:00:23.101Z,3.27
2019-04-28T01:05:29.029Z,1.80
2019-04-28T01:10:35.052Z,1.33
2019-04-28T01:16:11.973Z,1.80
2019-04-28T01:21:17.873Z,1.60
2019-04-28T01:26:23.800Z,1.70
2019-04-28T01:31:40.906Z,1.87
2019-04-28T01:36:46.834Z,1.60
2019-04-28T01:41:52.710Z,1.90
2019-04-28T01:46:59.516Z,1.97
2019-04-28T01:52:06.094Z,1.50
2019-04-28T01:57:11.953Z,2.37
2019-04-28T02:02:19.777Z,1.67
2019-04-28T02:07:25.842Z,1.73
2019-04-28T02:12:31.511Z,1.90
2019-04-28T02:17:37.480Z,2.33
2019-04-28T02:22:57.426Z,1.57
2019-04-28T02:28:03.589Z,2.70
2019-04-28T02:33:11.138Z,2.10
2019-04-28T02:38:17.062Z,2.40
2019-04-28T02:43:22.946Z,1.50
2019-04-28T02:48:30.973Z,1.87
2019-04-28T02:53:40.911Z,2.03
2019-04-28T02:58:46.779Z,2.00
2019-04-28T03:03:52.754Z,2.00
2019-04-28T03:09:00.274Z,2.10
2019-04-28T03:14:06.442Z,2.07
2019-04-28T03:19:12.314Z,2.37
2019-04-28T03:24:18.167Z,1.70
2019-04-28T03:29:36.757Z,2.17
2019-04-28T03:34:44.747Z,2.73
2019-04-28T03:39:50.771Z,1.60
2019-04-28T03:45:00.847Z,2.27
2019-04-28T03:50:06.436Z,1.80
2019-04-28T03:55:12.464Z,1.77
2019-04-28T04:00:18.447Z,2.13
2019-04-28T04:05:24.230Z,3.03
2019-04-28T04:10:37.195Z,1.73
2019-04-28T04:16:01.666Z,1.70
2019-04-28T04:21:11.110Z,1.73
2019-04-28T04:26:16.687Z,2.03
2019-04-28T04:31:22.779Z,1.97
2019-04-28T04:36:31.034Z,2.20
2019-04-28T04:41:36.452Z,2.43
2019-04-28T04:46:42.633Z,2.10
2019-04-28T04:51:50.863Z,1.67
2019-04-28T04:56:55.827Z,3.30
2019-04-28T05:02:30.619Z,2.30
2019-04-28T05:07:34.798Z,3.17
2019-04-28T05:12:40.927Z,2.00
2019-04-28T05:17:46.923Z,3.05
2019-04-28T05:23:00.685Z,3.02
2019-04-28T05:28:06.658Z,1.97
2019-04-28T05:33:30.722Z,2.37
2019-04-28T05:38:34.218Z,2.37
2019-04-28T05:43:40.520Z,2.47
2019-04-28T05:48:56.563Z,2.60
2019-04-28T05:54:15.255Z,2.93
2019-04-28T06:00:03.382Z,1.57
2019-04-28T06:05:10.156Z,2.87
2019-04-28T06:10:16.392Z,1.70
2019-04-28T06:15:22.330Z,2.27
2019-04-28T06:20:30.345Z,1.97
2019-04-28T06:25:37.922Z,2.47
2019-04-28T06:30:43.743Z,1.80
2019-04-28T06:35:49.523Z,1.60
2019-04-28T06:40:55.300Z,2.23
2019-04-28T06:46:01.296Z,2.30
2019-04-28T06:51:07.257Z,1.93
2019-04-28T06:56:13.276Z,2.70
2019-04-28T07:01:19.324Z,1.90
2019-04-28T07:06:25.483Z,3.57
2019-04-28T07:11:31.405Z,2.60
2019-04-28T07:16:37.269Z,2.30
2019-04-28T07:21:49.294Z,3.60
2019-04-28T07:26:55.500Z,3.00
2019-04-28T07:32:02.385Z,2.07
2019-04-28T07:37:08.426Z,2.23
2019-04-28T07:42:14.364Z,2.60
2019-04-28T07:47:21.427Z,4.03
2019-04-28T07:52:33.476Z,2.03
2019-04-28T07:57:39.345Z,2.27
2019-04-28T08:02:45.328Z,2.40
2019-04-28T08:07:51.443Z,3.13
2019-04-28T08:12:57.380Z,2.10
2019-04-28T08:18:03.672Z,2.10
2019-04-28T08:23:09.731Z,2.70
2019-04-28T08:28:15.816Z,2.67
2019-04-28T08:33:35.998Z,2.47
2019-04-28T08:38:42.030Z,3.50
2019-04-28T08:43:47.868Z,2.80
2019-04-28T08:48:53.723Z,2.10
2019-04-28T08:53:59.713Z,2.83
2019-04-28T08:59:06.622Z,2.10
2019-04-28T09:04:15.501Z,2.20
2019-04-28T09:09:21.452Z,2.53
2019-04-28T09:14:27.404Z,2.17
2019-04-28T09:19:33.446Z,2.40
2019-04-28T09:24:40.173Z,1.77
2019-04-28T09:29:46.154Z,2.07
2019-04-28T09:34:52.131Z,1.83
2019-04-28T09:40:06.332Z,1.97
2019-04-28T09:45:17.820Z,2.07
2019-04-28T09:50:24.004Z,1.50
2019-04-28T09:55:30.321Z,2.17
2019-04-28T10:00:37.831Z,1.50
2019-04-28T10:05:43.750Z,1.90
2019-04-28T10:10:49.752Z,1.60
2019-04-28T10:15:55.610Z,1.70
2019-04-28T10:21:01.807Z,1.50
2019-04-28T10:26:07.860Z,1.73
2019-04-28T10:31:13.492Z,1.63
2019-04-28T10:36:19.481Z,2.00
2019-04-28T10:41:33.578Z,1.70
2019-04-28T10:46:39.405Z,1.53
2019-04-28T10:51:49.100Z,2.10
2019-04-28T10:56:52.787Z,1.97
2019-04-28T11:01:58.740Z,1.40
2019-04-28T11:07:04.976Z,1.70
2019-04-28T11:12:15.071Z,1.30
2019-04-28T11:17:22.093Z,1.40
2019-04-28T11:22:28.197Z,2.30
2019-04-28T11:27:34.179Z,1.50
2019-04-28T11:32:42.812Z,1.23
2019-04-28T11:37:48.932Z,1.10
2019-04-28T11:42:55.901Z,2.10
2019-04-28T11:48:01.863Z,2.37
2019-04-28T11:53:07.840Z,1.90
2019-04-28T11:58:13.835Z,2.03
2019-04-28T12:03:19.984Z,1.60
2019-04-28T12:08:25.960Z,1.50
2019-04-28T12:13:48.720Z,2.87
2019-04-28T12:19:17.877Z,1.90
2019-04-28T12:24:23.818Z,2.27
2019-04-28T12:29:29.794Z,1.67
2019-04-28T12:34:35.807Z,2.23
2019-04-28T12:39:41.802Z,1.77
2019-04-28T12:44:47.718Z,1.57
2019-04-28T12:50:12.582Z,1.70
2019-04-28T12:55:18.738Z,2.27
2019-04-28T13:00:46.310Z,1.33
2019-04-28T13:06:02.398Z,1.90
2019-04-28T13:11:00.430Z,1.67
2019-04-28T13:16:06.588Z,2.33
2019-04-28T13:21:14.206Z,1.90
2019-04-28T13:26:20.065Z,1.60
2019-04-28T13:31:26.037Z,1.60
2019-04-28T13:36:32.025Z,2.07
2019-04-28T13:41:38.231Z,2.27
2019-04-28T13:46:44.154Z,2.57
2019-04-28T13:51:50.113Z,2.20
2019-04-28T13:56:56.156Z,2.20
2019-04-28T14:02:10.850Z,2.20
2019-04-28T14:07:18.191Z,2.30
2019-04-28T14:12:24.199Z,2.00
2019-04-28T14:17:30.235Z,2.27
2019-04-28T14:22:36.208Z,1.83
2019-04-28T14:27:42.186Z,2.47
2019-04-28T14:32:48.240Z,2.45
2019-04-28T14:37:54.535Z,2.85
2019-04-28T14:43:00.546Z,2.35
2019-04-28T14:48:07.316Z,2.50
2019-04-28T14:53:13.376Z,2.30
2019-04-28T14:58:19.433Z,2.52
2019-04-28T15:03:26.873Z,2.55
2019-04-28T15:08:50.462Z,3.27
2019-04-28T15:13:56.506Z,2.20
2019-04-28T15:19:02.674Z,2.60
2019-04-28T15:24:08.729Z,2.12
2019-04-28T15:29:14.885Z,2.50
2019-04-28T15:34:20.844Z,3.05
2019-04-28T15:39:26.833Z,2.72
2019-04-28T15:44:32.716Z,2.40
2019-04-28T15:49:38.770Z,2.77
2019-04-28T15:54:44.894Z,2.80
2019-04-28T15:59:50.919Z,3.60
2019-04-28T16:04:56.910Z,3.20
2019-04-28T16:10:02.978Z,2.72
2019-04-28T16:15:09.244Z,3.37
2019-04-28T16:20:15.417Z,3.15
2019-04-28T16:25:21.359Z,3.58
2019-04-28T16:30:27.267Z,4.22
2019-04-28T16:35:33.191Z,3.75
2019-04-28T16:40:40.857Z,3.17
2019-04-28T16:45:47.201Z,3.23
2019-04-28T16:50:53.234Z,3.67
2019-04-28T16:56:30.470Z,4.33
2019-04-28T17:02:04.249Z,4.03
2019-04-28T17:07:10.339Z,3.90
2019-04-28T17:12:17.224Z,4.13
2019-04-28T17:17:24.260Z,4.00
2019-04-28T17:22:30.439Z,4.00
2019-04-28T17:27:36.620Z,3.60
2019-04-28T17:32:43.030Z,4.65
2019-04-28T17:37:48.928Z,2.52
2019-04-28T17:42:55.044Z,2.40
2019-04-28T17:48:07.372Z,2.62
2019-04-28T17:53:13.358Z,3.67
2019-04-28T17:58:19.438Z,4.08
2019-04-28T18:03:41.251Z,3.67
2019-04-28T18:08:47.354Z,3.92
2019-04-28T18:13:53.336Z,3.22
2019-04-28T18:19:05.996Z,3.30
2019-04-28T18:24:12.027Z,3.45
2019-04-28T18:29:18.134Z,3.77
2019-04-28T18:34:55.426Z,3.52
2019-04-28T18:40:24.564Z,3.65
2019-04-28T18:45:30.625Z,3.92
2019-04-28T18:50:36.961Z,3.25
2019-04-28T18:55:42.888Z,3.83
2019-04-28T19:01:07.615Z,3.90
2019-04-28T19:06:13.523Z,4.57
2019-04-28T19:11:31.900Z,5.13
2019-04-28T19:16:56.526Z,5.30
2019-04-28T19:22:02.614Z,5.40
2019-04-28T19:27:08.806Z,5.83
2019-04-28T19:32:35.330Z,5.65
2019-04-28T19:37:47.419Z,5.62
2019-04-28T19:43:16.090Z,6.37
2019-04-28T19:48:30.481Z,5.83
2019-04-28T19:53:37.797Z,6.10
2019-04-28T19:58:48.922Z,6.17
2019-04-28T20:03:55.013Z,6.53
2019-04-28T20:09:00.983Z,7.20
2019-04-28T20:14:07.097Z,6.10
2019-04-28T20:19:13.266Z,5.22
2019-04-28T20:24:19.633Z,8.20
2019-04-28T20:29:25.710Z,7.10
2019-04-28T20:34:31.798Z,6.80
2019-04-28T20:39:37.966Z,7.00
2019-04-28T20:44:44.034Z,7.05
2019-04-28T20:49:50.134Z,7.85
2019-04-28T20:54:56.221Z,6.92
2019-04-28T21:00:02.350Z,7.83
2019-04-28T21:05:08.460Z,7.73
2019-04-28T21:10:15.703Z,8.13
2019-04-28T21:15:21.636Z,7.05
2019-04-28T21:20:27.669Z,6.70
2019-04-28T21:25:33.820Z,6.70
2019-04-28T21:30:39.720Z,8.35
2019-04-28T21:35:45.738Z,8.60
2019-04-28T21:40:52.119Z,7.17
2019-04-28T21:46:13.626Z,7.80
2019-04-28T21:51:19.671Z,8.28
2019-04-28T21:56:25.694Z,7.90
2019-04-28T22:01:31.954Z,6.40
2019-04-28T22:06:38.048Z,5.93
2019-04-28T22:11:43.699Z,6.00
2019-04-28T22:16:49.810Z,5.53
2019-04-28T22:21:55.639Z,6.03
2019-04-28T22:27:02.088Z,6.00
2019-04-28T22:32:08.020Z,5.40
2019-04-28T22:37:14.339Z,5.00
2019-04-28T22:42:20.480Z,4.30
2019-04-28T22:47:26.559Z,4.57
2019-04-28T22:52:32.521Z,4.47
2019-04-28T22:58:06.616Z,4.97
2019-04-28T23:03:17.699Z,4.93
2019-04-28T23:08:23.769Z,3.97
2019-04-28T23:13:30.033Z,4.97
2019-04-28T23:18:36.215Z,4.23
2019-04-28T23:23:42.262Z,3.67
2019-04-28T23:28:48.380Z,4.80
2019-04-28T23:33:54.309Z,4.73
2019-04-28T23:39:00.389Z,4.27
2019-04-28T23:44:06.557Z,4.90
2019-04-28T23:49:12.430Z,4.57
2019-04-28T23:54:18.521Z,4.50
2019-04-28T23:59:24.410Z,4.47
